Time;durP1;ratioP1;P1;durP2;ratioP2;P2;SDS_P1;SDS_P2;PMS_P1;PMS_P2;Temp;Humidity;BMP_temperature;BMP_pressure;BME280_temperature;BME280_humidity;BME280_pressure;Samples;Min_cycle;Max_cycle;Signal;HPM_P1;HPM_P2
2022/06/10 00:01:06;;;;;;;5.00;2.35;;;;;;;21.37;45.96;99972.77;1722581;83;21340;-62
2022/06/10 00:03:36;;;;;;;2.60;1.90;;;;;;;21.33;46.19;99976.67;1690208;84;21031;-62
2022/06/10 00:06:07;;;;;;;4.10;2.02;;;;;;;21.26;46.34;99977.52;1690029;84;21055;-64
2022/06/10 00:08:39;;;;;;;2.80;1.92;;;;;;;21.20;46.24;99973.85;1722627;83;21094;-62
2022/06/10 00:11:08;;;;;;;4.70;2.10;;;;;;;21.15;46.54;99977.20;1722839;82;21062;-62
2022/06/10 00:13:43;;;;;;;4.40;1.87;;;;;;;21.05;46.85;99978.58;1690529;84;21129;-63
2022/06/10 00:16:14;;;;;;;3.45;2.08;;;;;;;21.00;47.12;99980.81;1690376;84;21039;-62
2022/06/10 00:18:44;;;;;;;3.20;2.08;;;;;;;20.95;47.23;99972.44;1690331;85;21098;-62
2022/06/10 00:21:14;;;;;;;2.30;2.08;;;;;;;20.97;47.33;99993.06;1690361;84;21036;-62
2022/06/10 00:23:43;;;;;;;4.50;2.00;;;;;;;20.96;47.22;99985.26;1690155;85;21017;-63
2022/06/10 00:26:12;;;;;;;2.77;1.95;;;;;;;20.94;47.19;99977.73;1690321;84;21063;-63
2022/06/10 00:28:43;;;;;;;5.65;2.05;;;;;;;20.92;47.64;99984.14;1722678;83;21066;-62
2022/06/10 00:31:13;;;;;;;2.98;2.02;;;;;;;20.89;47.81;99985.52;1690532;85;21111;-62
2022/06/10 00:33:42;;;;;;;2.70;2.00;;;;;;;20.89;47.87;99982.74;1722631;83;21528;-62
2022/06/10 00:36:12;;;;;;;3.17;1.98;;;;;;;20.90;47.91;99976.61;1722699;83;21035;-63
2022/06/10 00:38:41;;;;;;;4.97;2.30;;;;;;;20.92;47.83;99985.53;1722939;83;21050;-63
2022/06/10 00:41:10;;;;;;;5.37;2.60;;;;;;;20.92;47.85;99977.17;1690513;84;21031;-62
2022/06/10 00:43:39;;;;;;;7.37;2.35;;;;;;;20.88;47.85;99982.46;1678332;85;21039;-65
2022/06/10 00:46:25;;;;;;;4.10;2.58;;;;;;;20.84;47.91;99980.50;1690495;85;21094;-63
2022/06/10 00:49:11;;;;;;;5.42;2.58;;;;;;;20.78;48.29;99980.19;1690470;85;21807;-61
2022/06/10 00:51:53;;;;;;;3.30;2.10;;;;;;;20.71;48.54;99979.61;1690289;84;21007;-64
2022/06/10 00:54:35;;;;;;;4.72;2.22;;;;;;;20.64;48.66;99984.05;1690595;85;21485;-63
2022/06/10 00:57:16;;;;;;;3.87;2.33;;;;;;;20.66;48.81;99987.95;1690355;84;21023;-62
2022/06/10 01:00:15;;;;;;;6.03;2.27;;;;;;;20.66;49.05;99986.00;1690206;84;21044;-62
2022/06/10 01:02:44;;;;;;;;;;;;;;;20.63;49.13;99982.93;1694370;84;21008;-62
2022/06/10 01:05:21;;;;;;;3.90;2.27;;;;;;;20.61;49.50;99985.15;1693456;85;20156;-63
2022/06/10 01:08:00;;;;;;;6.75;2.25;;;;;;;20.57;49.46;99980.69;1693658;85;21318;-62
2022/06/10 01:10:32;;;;;;;4.10;2.55;;;;;;;20.52;49.51;99978.72;1693257;84;21523;-62
2022/06/10 01:13:26;;;;;;;3.85;2.10;;;;;;;20.49;49.74;99980.66;1693408;84;21062;-62
2022/06/10 01:16:30;;;;;;;5.87;2.17;;;;;;;20.50;49.75;99982.34;1693526;85;20999;-63
2022/06/10 01:19:47;;;;;;;3.00;2.10;;;;;;;20.49;49.93;99979.27;1693253;85;21415;-62
2022/06/10 01:23:01;;;;;;;5.58;2.00;;;;;;;20.45;49.99;99982.32;1693334;84;21473;-61
2022/06/10 01:25:51;;;;;;;4.40;2.30;;;;;;;20.42;50.15;99995.39;1700800;84;21011;-62
2022/06/10 01:28:40;;;;;;;3.58;2.00;;;;;;;20.42;50.25;99998.73;1700838;84;21492;-62
2022/06/10 01:31:27;;;;;;;7.65;2.00;;;;;;;20.42;50.13;99995.94;1701062;84;21098;-63
2022/06/10 01:34:34;;;;;;;4.90;2.17;;;;;;;20.40;50.16;99999.00;1701073;83;21030;-63
2022/06/10 01:37:21;;;;;;;3.55;2.10;;;;;;;20.38;50.32;100004.52;1700618;84;21451;-61
2022/06/10 01:40:07;;;;;;;3.62;2.17;;;;;;;20.34;50.52;100008.95;1700573;84;21038;-63
2022/06/10 01:42:50;;;;;;;4.00;2.27;;;;;;;20.29;50.81;100009.77;1700978;83;21063;-62
2022/06/10 01:45:33;;;;;;;3.42;2.30;;;;;;;20.24;50.94;100007.80;1696633;84;21031;-62
2022/06/10 01:48:09;;;;;;;2.77;2.15;;;;;;;20.18;51.25;100010.28;1700449;84;21010;-62
2022/06/10 01:50:51;;;;;;;4.40;2.20;;;;;;;20.14;51.45;100006.88;1701005;84;21003;-63
2022/06/10 01:53:28;;;;;;;3.15;2.30;;;;;;;20.09;51.72;100008.25;1700707;83;21482;-64
2022/06/10 01:56:06;;;;;;;7.25;2.95;;;;;;;20.04;51.95;100006.83;1701116;84;21063;-63
2022/06/10 01:58:48;;;;;;;11.20;2.75;;;;;;;20.01;52.12;100007.38;1700660;84;21031;-63
2022/06/10 02:01:28;;;;;;;6.28;2.80;;;;;;;20.00;52.20;100005.70;1700602;84;21019;-62
2022/06/10 02:04:18;;;;;;;8.38;2.77;;;;;;;19.99;52.30;100006.80;1718345;83;21026;-62
2022/06/10 02:07:06;;;;;;;4.35;2.58;;;;;;;19.99;52.34;100002.08;1720855;83;21010;-64
2022/06/10 02:09:43;;;;;;;6.28;2.67;;;;;;;19.99;52.35;100009.03;1720916;83;21445;-62
2022/06/10 02:12:20;;;;;;;3.92;2.50;;;;;;;20.00;52.40;100012.09;1720976;83;21006;-63
2022/06/10 02:14:59;;;;;;;4.58;2.52;;;;;;;19.99;52.62;100015.14;1720830;83;21539;-63
2022/06/10 02:17:39;;;;;;;7.83;2.95;;;;;;;19.97;52.92;100010.41;1720810;83;21458;-63
2022/06/10 02:20:11;;;;;;;6.85;2.60;;;;;;;19.94;52.94;100013.17;1720766;83;21093;-63
2022/06/10 02:22:45;;;;;;;7.45;2.80;;;;;;;19.91;53.03;100017.88;1693749;83;21062;-64
2022/06/10 02:25:24;;;;;;;9.05;3.15;;;;;;;19.87;53.24;100020.91;1720930;83;21046;-62
2022/06/10 02:27:59;;;;;;;6.85;2.87;;;;;;;19.83;53.47;100027.56;1720879;83;21129;-63
2022/06/10 02:30:38;;;;;;;10.30;3.37;;;;;;;19.77;53.75;100027.24;1720911;83;21081;-63
2022/06/10 02:33:08;;;;;;;12.03;3.08;;;;;;;19.73;54.04;100030.27;1719944;83;21069;-63
2022/06/10 02:35:56;;;;;;;4.80;2.85;;;;;;;19.70;54.15;100037.76;1720204;83;21085;-63
2022/06/10 02:38:29;;;;;;;;;;;;;;;19.72;54.07;100034.16;1723391;83;21038;-63
2022/06/10 02:41:11;;;;;;;4.60;2.52;;;;;;;19.70;54.24;100019.69;1720975;83;20157;-62
2022/06/10 02:44:14;;;;;;;6.97;2.67;;;;;;;19.65;54.52;100028.54;1720796;83;21338;-64
2022/06/10 02:46:55;;;;;;;7.20;3.20;;;;;;;19.63;54.94;100026.03;1721108;83;21045;-62
2022/06/10 02:49:24;;;;;;;8.75;3.02;;;;;;;19.65;54.89;100029.93;1720772;83;21503;-61
2022/06/10 02:51:53;;;;;;;6.83;2.80;;;;;;;19.66;55.04;100031.61;1720872;83;21026;-64
2022/06/10 02:54:30;;;;;;;5.62;3.20;;;;;;;19.66;55.29;100031.05;1721102;83;21484;-63
2022/06/10 02:57:16;;;;;;;4.37;2.80;;;;;;;19.64;55.42;100031.88;1720653;83;21082;-62
2022/06/10 03:02:52;;;;;;;9.18;3.10;;;;;;;19.63;55.78;100039.92;1721401;82;21038;-62
2022/06/10 03:05:37;;;;;;;3.92;2.83;;;;;;;19.60;56.23;100046.02;1689285;84;21000;-62
2022/06/10 03:08:32;;;;;;;4.10;2.80;;;;;;;19.58;56.30;100050.45;1722347;83;21015;-63
2022/06/10 03:11:12;;;;;;;6.37;2.80;;;;;;;19.59;56.29;100041.56;1722582;83;21031;-62
2022/06/10 03:14:07;;;;;;;6.47;2.98;;;;;;;19.63;56.14;100034.37;1722487;83;21129;-63
2022/06/10 03:16:48;;;;;;;6.83;3.25;;;;;;;19.68;56.16;100033.56;1722640;82;21102;-62
2022/06/10 03:19:48;;;;;;;6.35;3.05;;;;;;;19.71;55.98;100041.38;1722658;83;21458;-62
2022/06/10 03:23:03;;;;;;;13.85;4.00;;;;;;;19.74;56.03;100033.89;1722700;83;21050;-62
2022/06/10 03:25:50;;;;;;;9.75;3.50;;;;;;;19.75;56.08;100033.63;1722782;83;21454;-61
2022/06/10 03:28:35;;;;;;;7.22;3.45;;;;;;;19.78;56.08;100033.64;1690244;84;21070;-63
2022/06/10 03:31:15;;;;;;;6.25;3.20;;;;;;;19.85;55.56;100037.86;1690393;84;21011;-62
2022/06/10 03:33:53;;;;;;;7.47;3.35;;;;;;;19.93;55.23;100034.58;1722724;83;21465;-62
2022/06/10 03:36:25;;;;;;;8.55;3.83;;;;;;;19.99;55.15;100034.61;1722686;83;21468;-62
2022/06/10 03:38:53;;;;;;;6.55;3.15;;;;;;;20.04;54.87;100033.25;1722795;83;21480;-62
2022/06/10 03:41:39;;;;;;;7.97;3.33;;;;;;;20.12;54.71;100036.91;1722880;83;21034;-61
2022/06/10 03:44:17;;;;;;;8.63;3.77;;;;;;;20.18;54.46;100038.09;1722872;83;21073;-62
2022/06/10 03:46:48;;;;;;;8.93;3.25;;;;;;;20.26;53.90;100047.33;1722795;83;21078;-65
2022/06/10 03:49:21;;;;;;;7.87;3.47;;;;;;;20.35;54.04;100044.86;1722576;82;21027;-62
2022/06/10 03:51:51;;;;;;;7.85;3.12;;;;;;;20.41;53.72;100042.97;1690357;85;21471;-62
2022/06/10 03:54:20;;;;;;;6.78;3.05;;;;;;;20.46;53.49;100039.66;1690323;85;21075;-64
2022/06/10 03:56:52;;;;;;;6.80;3.47;;;;;;;20.54;53.57;100046.09;1690395;85;21023;-62
2022/06/10 03:59:21;;;;;;;5.53;3.47;;;;;;;20.60;53.40;100036.37;1722596;83;21082;-62
2022/06/10 04:01:51;;;;;;;6.15;3.37;;;;;;;20.65;52.71;100036.39;1722634;83;21058;-62
2022/06/10 04:04:23;;;;;;;7.47;3.60;;;;;;;20.72;52.34;100039.20;1722585;82;21042;-61
2022/06/10 04:06:52;;;;;;;9.00;3.10;;;;;;;20.80;51.95;100040.06;1722848;83;21019;-62
2022/06/10 04:09:23;;;;;;;7.60;3.30;;;;;;;20.88;51.32;100040.11;1689490;84;21075;-63
2022/06/10 04:11:51;;;;;;;8.28;3.40;;;;;;;20.93;50.98;100042.07;1690129;85;21067;-61
2022/06/10 04:14:22;;;;;;;8.08;3.90;;;;;;;21.00;50.71;100040.70;1690248;84;21024;-61
2022/06/10 04:16:52;;;;;;;5.25;3.35;;;;;;;21.06;50.40;100043.77;1690371;84;21024;-62
2022/06/10 04:19:21;;;;;;;10.90;4.00;;;;;;;21.13;50.42;100042.11;1690235;85;21471;-61
2022/06/10 04:21:50;;;;;;;7.78;3.95;;;;;;;21.17;50.52;100051.03;1690272;85;21066;-62
2022/06/10 04:24:20;;;;;;;8.78;4.20;;;;;;;21.21;50.53;100059.12;1690465;85;21050;-61
2022/06/10 04:26:48;;;;;;;7.90;4.10;;;;;;;21.28;50.34;100055.27;1690328;85;21055;-63
2022/06/10 04:29:18;;;;;;;7.20;4.10;;;;;;;21.35;50.05;100055.27;1690506;84;21051;-62
2022/06/10 04:31:47;;;;;;;6.30;3.95;;;;;;;21.43;49.94;100056.67;1690611;84;21078;-62
2022/06/10 04:34:17;;;;;;;7.80;4.05;;;;;;;21.51;49.98;100054.75;1722962;83;21026;-62
2022/06/10 04:36:46;;;;;;;12.07;4.60;;;;;;;21.58;49.90;100058.66;1722870;83;21027;-63
2022/06/10 04:39:15;;;;;;;19.85;8.53;;;;;;;21.65;50.11;100069.81;1690731;84;21070;-64
2022/06/10 04:41:44;;;;;;;9.65;4.90;;;;;;;21.69;50.04;100068.14;1690328;84;21047;-63
2022/06/10 04:44:14;;;;;;;13.13;5.08;;;;;;;21.75;49.70;100070.36;1690320;84;21024;-63
2022/06/10 04:46:45;;;;;;;11.83;4.50;;;;;;;21.82;49.50;100069.52;1722520;83;21063;-63
2022/06/10 04:49:14;;;;;;;11.05;4.40;;;;;;;21.92;49.36;100075.66;1722644;82;21050;-65
2022/06/10 04:51:45;;;;;;;10.72;4.03;;;;;;;22.01;49.27;100076.76;1722822;83;21030;-63
2022/06/10 04:54:16;;;;;;;6.90;3.62;;;;;;;22.13;48.91;100074.01;1722648;83;21576;-62
2022/06/10 04:56:45;;;;;;;11.68;4.47;;;;;;;22.33;48.63;100082.89;1722913;83;21023;-63
2022/06/10 04:59:14;;;;;;;8.90;3.87;;;;;;;22.56;48.27;100087.57;1722526;82;21027;-63
2022/06/10 05:01:43;;;;;;;9.03;3.85;;;;;;;22.84;47.71;100088.91;1722479;82;21082;-62
2022/06/10 05:04:12;;;;;;;13.58;4.90;;;;;;;23.13;46.97;100087.08;1725829;83;21009;-63
2022/06/10 05:06:42;;;;;;;17.27;5.15;;;;;;;23.40;46.33;100089.42;1728422;83;21069;-62
2022/06/10 05:09:12;;;;;;;24.92;5.20;;;;;;;23.68;46.04;100082.28;1727224;83;21018;-63
2022/06/10 05:11:43;;;;;;;14.68;5.28;;;;;;;24.01;45.11;100090.38;1728373;83;21049;-62
2022/06/10 05:14:13;;;;;;;15.35;5.10;;;;;;;24.29;44.57;100092.40;1728301;83;21026;-61
2022/06/10 05:16:41;;;;;;;10.28;5.12;;;;;;;24.59;44.18;100088.42;1728211;82;21014;-61
2022/06/10 05:19:10;;;;;;;7.95;4.87;;;;;;;24.93;43.54;100088.87;1699914;83;21073;-62
2022/06/10 05:21:39;;;;;;;9.83;4.65;;;;;;;25.23;42.90;100092.68;1728362;83;21532;-62
2022/06/10 05:24:08;;;;;;;11.97;4.87;;;;;;;25.53;42.28;100094.79;1728205;83;21055;-63
2022/06/10 05:26:37;;;;;;;11.28;5.83;;;;;;;25.84;41.66;100093.75;1728429;83;21025;-62
2022/06/10 05:29:06;;;;;;;12.20;5.85;;;;;;;26.07;40.86;100094.22;1728412;83;21109;-63
2022/06/10 05:31:35;;;;;;;9.60;5.28;;;;;;;26.29;40.57;100103.94;1728386;83;20990;-62
2022/06/10 05:36:52;;;;;;;16.77;6.60;;;;;;;26.71;39.64;100103.72;1728776;83;21060;-63
2022/06/10 05:39:21;;;;;;;21.68;7.72;;;;;;;26.95;39.29;100106.31;1728206;83;21022;-63
2022/06/10 05:42:05;;;;;;;14.53;5.58;;;;;;;27.11;39.01;100111.06;1728545;83;21020;-63
2022/06/10 05:44:43;;;;;;;11.60;5.53;;;;;;;27.27;38.74;100099.73;1728716;83;21033;-64
2022/06/10 05:47:14;;;;;;;;;;;;;;;27.54;38.28;100112.08;1730800;83;21492;-62
2022/06/10 05:49:46;;;;;;;13.72;5.50;;;;;;;27.79;37.56;100114.31;1728294;83;20475;-63
2022/06/10 05:52:17;;;;;;;12.25;5.65;;;;;;;28.13;36.54;100117.98;1728316;83;21040;-63
2022/06/10 05:54:47;;;;;;;14.58;5.67;;;;;;;28.13;36.54;100117.98;1637955;87;21033;-61
2022/06/10 05:57:16;;;;;;;12.23;5.95;;;;;;;28.29;35.94;100109.41;1638121;87;21045;-63
2022/06/10 05:59:52;;;;;;;13.13;6.15;;;;;;;28.48;35.28;100121.03;1638145;86;21061;-63
2022/06/10 06:02:23;;;;;;;10.85;5.62;;;;;;;28.55;34.96;100123.63;1637942;86;21045;-62
2022/06/10 06:04:52;;;;;;;13.93;5.87;;;;;;;28.59;35.05;100119.01;1648224;86;21039;-62
2022/06/10 06:07:27;;;;;;;19.17;5.75;;;;;;;28.75;34.89;100120.84;1653281;86;21058;-63
2022/06/10 06:09:55;;;;;;;12.37;6.30;;;;;;;28.90;34.72;100130.89;1653387;87;21471;-63
2022/06/10 06:12:25;;;;;;;14.10;6.53;;;;;;;29.09;34.61;100121.57;1674447;83;21490;-61
2022/06/10 06:14:53;;;;;;;12.50;6.25;;;;;;;29.31;34.01;100131.36;1732747;83;21062;-63
2022/06/10 06:17:22;;;;;;;10.82;6.10;;;;;;;29.48;33.97;100131.16;1733015;83;21071;-63
2022/06/10 06:19:54;;;;;;;13.35;6.55;;;;;;;29.60;33.55;100131.34;1648229;87;21107;-64
2022/06/10 06:22:23;;;;;;;11.63;5.80;;;;;;;29.75;33.39;100125.19;1648257;87;21146;-64
2022/06/10 06:24:53;;;;;;;13.35;5.85;;;;;;;29.86;33.34;100127.92;1648309;87;21087;-63
2022/06/10 06:27:23;;;;;;;13.35;6.40;;;;;;;30.06;32.34;100124.23;1648262;87;21474;-63
2022/06/10 06:29:54;;;;;;;13.55;6.20;;;;;;;30.15;32.50;100130.12;1596324;90;21534;-63
2022/06/10 06:32:23;;;;;;;19.07;8.13;;;;;;;30.17;32.62;100129.78;1596554;90;21110;-63
2022/06/10 06:34:52;;;;;;;12.88;7.75;;;;;;;30.21;32.24;100132.18;1596467;90;21035;-65
2022/06/10 06:37:24;;;;;;;21.68;7.78;;;;;;;30.21;32.34;100135.02;1607341;87;21475;-62
2022/06/10 06:39:53;;;;;;;20.77;7.45;;;;;;;30.26;32.29;100141.90;1648400;87;21055;-63
2022/06/10 06:42:21;;;;;;;9.33;6.78;;;;;;;30.35;31.95;100141.87;1648666;87;21487;-63
2022/06/10 06:44:53;;;;;;;12.43;7.15;;;;;;;30.39;32.00;100142.28;1648465;87;21036;-65
2022/06/10 06:47:24;;;;;;;20.77;8.38;;;;;;;30.42;31.98;100146.44;1659688;84;21063;-62
2022/06/10 06:49:54;;;;;;;13.93;7.37;;;;;;;30.54;32.13;100145.15;1699744;84;21071;-63
2022/06/10 06:52:22;;;;;;;13.60;7.83;;;;;;;30.73;32.02;100147.64;1699705;83;21058;-62
2022/06/10 06:54:52;;;;;;;15.13;7.72;;;;;;;30.82;31.36;100150.68;1700068;83;21003;-62
2022/06/10 06:57:22;;;;;;;14.68;7.60;;;;;;;30.83;31.28;100150.92;1699932;84;21050;-64
2022/06/10 06:59:50;;;;;;;16.52;7.60;;;;;;;30.81;30.96;100146.77;1680441;84;21097;-62
2022/06/10 07:02:20;;;;;;;13.98;7.65;;;;;;;30.80;31.25;100152.19;1699878;84;21102;-62
2022/06/10 07:04:49;;;;;;;23.92;9.08;;;;;;;30.81;30.98;100150.44;1696178;83;21075;-63
2022/06/10 07:07:18;;;;;;;17.75;7.83;;;;;;;30.97;30.09;100147.03;1693502;85;21000;-64
2022/06/10 07:09:46;;;;;;;11.20;7.45;;;;;;;31.11;30.56;100147.04;1693241;85;21427;-63
2022/06/10 07:12:17;;;;;;;23.95;8.03;;;;;;;31.17;29.63;100144.29;1693151;85;21533;-62
2022/06/10 07:14:46;;;;;;;13.05;8.40;;;;;;;31.19;28.76;100149.02;1693314;84;21003;-63
2022/06/10 07:17:17;;;;;;;19.50;8.45;;;;;;;31.18;28.81;100151.61;1693152;85;21926;-64
2022/06/10 07:19:51;;;;;;;14.15;7.70;;;;;;;31.16;28.70;100147.47;1693608;85;21027;-65
2022/06/10 07:22:20;;;;;;;14.95;7.42;;;;;;;31.07;28.68;100145.23;1700802;83;21027;-63
2022/06/10 07:24:49;;;;;;;17.30;7.25;;;;;;;31.03;28.60;100149.34;1700926;84;21070;-63
2022/06/10 07:27:19;;;;;;;13.53;7.60;;;;;;;31.14;27.84;100146.95;1700642;83;21740;-63
2022/06/10 07:29:51;;;;;;;15.20;7.75;;;;;;;31.40;27.43;100151.09;1698360;84;21443;-63
2022/06/10 07:32:20;;;;;;;11.73;7.58;;;;;;;31.51;27.44;100153.77;1701168;84;21070;-63
2022/06/10 07:34:51;;;;;;;15.85;7.72;;;;;;;31.51;27.34;100151.77;1700534;83;21047;-62
2022/06/10 07:37:20;;;;;;;14.65;7.92;;;;;;;31.54;27.26;100148.23;1700786;83;21070;-63
2022/06/10 07:39:50;;;;;;;17.35;9.85;;;;;;;31.59;27.33;100142.13;1701037;84;21070;-63
2022/06/10 07:42:19;;;;;;;13.18;8.00;;;;;;;31.81;27.22;100146.89;1700692;84;21058;-63
2022/06/10 07:44:55;;;;;;;13.43;8.08;;;;;;;32.06;27.20;100147.03;1701058;84;21051;-63
2022/06/10 07:47:34;;;;;;;11.48;7.12;;;;;;;32.26;26.76;100143.95;1700674;84;21059;-63
2022/06/10 07:50:06;;;;;;;13.80;7.33;;;;;;;32.41;24.87;100150.38;1700536;83;21039;-64
2022/06/10 07:52:34;;;;;;;13.88;7.30;;;;;;;32.62;24.12;100156.84;1700491;83;21054;-63
2022/06/10 07:55:05;;;;;;;14.58;7.40;;;;;;;32.83;23.92;100154.53;1700882;83;21069;-64
2022/06/10 07:57:35;;;;;;;15.13;7.40;;;;;;;33.02;23.80;100152.77;1700305;84;21086;-63
2022/06/10 08:00:10;;;;;;;14.80;7.28;;;;;;;33.14;23.71;100154.78;1642050;87;21113;-63
2022/06/10 08:02:42;;;;;;;14.78;7.45;;;;;;;33.31;23.90;100165.13;1661192;86;21068;-61
2022/06/10 08:05:14;;;;;;;17.00;9.15;;;;;;;33.44;23.53;100157.42;1722939;82;21125;-61
2022/06/10 08:07:45;;;;;;;22.95;9.48;;;;;;;33.62;23.42;100163.08;1742436;81;21023;-64
2022/06/10 08:10:22;;;;;;;14.23;9.80;;;;;;;33.79;23.04;100160.55;1742589;82;21143;-63
2022/06/10 08:12:51;;;;;;;15.38;10.03;;;;;;;33.91;22.84;100161.39;1693375;85;21109;-62
2022/06/10 08:15:20;;;;;;;17.15;10.55;;;;;;;34.03;22.20;100159.10;1693575;85;21058;-62
2022/06/10 08:17:50;;;;;;;19.45;11.03;;;;;;;34.00;22.35;100156.98;1693804;84;21568;-63
2022/06/10 08:23:22;;;;;;;15.90;9.45;;;;;;;34.00;22.42;100156.39;1662638;85;21435;-63
2022/06/10 08:25:51;;;;;;;17.45;10.70;;;;;;;34.09;22.17;100156.23;1661993;86;21059;-64
2022/06/10 08:28:20;;;;;;;17.05;10.75;;;;;;;34.09;22.37;100156.23;1671948;85;21078;-61
2022/06/10 08:30:50;;;;;;;15.50;10.35;;;;;;;34.10;22.64;100153.63;1689584;84;21457;-64
2022/06/10 08:33:19;;;;;;;18.00;11.40;;;;;;;34.10;22.76;100147.94;1689715;84;21085;-64
2022/06/10 08:35:52;;;;;;;15.65;10.45;;;;;;;34.22;22.67;100158.43;1689882;84;21077;-62
2022/06/10 08:38:22;;;;;;;22.35;11.03;;;;;;;34.19;22.67;100158.56;1689359;85;21080;-62
2022/06/10 08:41:09;;;;;;;14.30;10.15;;;;;;;34.11;22.68;100153.86;1689728;84;21129;-62
2022/06/10 08:44:06;;;;;;;17.37;10.88;;;;;;;33.98;22.91;100160.78;1689703;85;21130;-61
2022/06/10 08:47:23;;;;;;;21.60;11.15;;;;;;;33.93;22.88;100153.93;1689802;84;21062;-61
2022/06/10 08:50:27;;;;;;;20.00;10.95;;;;;;;33.83;22.98;100151.59;1689529;85;21434;-62
2022/06/10 08:53:24;;;;;;;16.23;11.00;;;;;;;33.84;23.01;100148.39;1689410;84;21473;-62
2022/06/10 08:56:18;;;;;;;16.80;10.93;;;;;;;34.01;22.87;100148.69;1700544;84;21118;-62
2022/06/10 08:59:17;;;;;;;14.07;10.70;;;;;;;34.25;22.40;100148.58;1694540;84;21036;-64
2022/06/10 09:02:37;;;;;;;19.32;11.38;;;;;;;34.27;22.20;100153.30;1691198;84;21075;-61
2022/06/10 09:05:29;;;;;;;15.95;10.45;;;;;;;34.26;22.16;100151.66;1680428;85;21479;-61
2022/06/10 09:08:01;;;;;;;19.98;10.85;;;;;;;34.23;22.30;100150.13;1685137;85;21067;-63
2022/06/10 09:10:42;;;;;;;22.75;10.88;;;;;;;34.12;22.79;100142.72;1685254;85;21075;-64
2022/06/10 09:13:21;;;;;;;20.70;10.65;;;;;;;33.96;23.00;100139.82;1684992;85;21074;-64
2022/06/10 09:16:10;;;;;;;13.28;9.45;;;;;;;33.86;23.23;100149.45;1685448;85;21067;-63
2022/06/10 09:18:56;;;;;;;15.03;8.75;;;;;;;33.89;22.84;100151.58;1685149;85;21250;-61
2022/06/10 09:21:33;;;;;;;14.95;8.55;;;;;;;33.88;22.70;100156.44;1675612;85;21089;-64
2022/06/10 09:24:07;;;;;;;12.45;8.58;;;;;;;33.76;22.65;100144.21;1685491;85;21541;-63
2022/06/10 09:26:40;;;;;;;15.55;7.75;;;;;;;33.62;22.84;100146.02;1685199;85;21530;-64
2022/06/10 09:29:09;;;;;;;10.50;8.00;;;;;;;33.54;22.77;100146.99;1685062;85;21114;-63
2022/06/10 09:31:55;;;;;;;11.83;8.13;;;;;;;33.39;23.04;100152.23;1682253;85;21062;-57
2022/06/10 09:34:30;;;;;;;14.28;8.33;;;;;;;33.33;22.93;100139.45;1663427;85;21161;-62
2022/06/10 09:37:31;;;;;;;9.98;7.33;;;;;;;33.19;23.12;100145.23;1665919;86;21089;-62
2022/06/10 09:40:36;;;;;;;15.55;8.35;;;;;;;33.00;23.33;100140.95;1666181;86;21085;-64
2022/06/10 09:43:33;;;;;;;11.70;7.87;;;;;;;32.88;23.68;100149.45;1666195;85;21070;-64
2022/06/10 09:46:32;;;;;;;13.88;8.33;;;;;;;32.80;23.78;100139.05;1666509;85;21498;-63
2022/06/10 09:49:54;;;;;;;11.80;8.03;;;;;;;32.77;23.87;100142.00;1666315;86;21101;-62
2022/06/10 09:53:12;;;;;;;14.40;7.85;;;;;;;32.78;23.94;100150.75;1666262;86;21049;-64
2022/06/10 09:56:00;;;;;;;14.40;8.40;;;;;;;32.67;23.99;100152.95;1666077;86;21481;-63
2022/06/10 09:59:06;;;;;;;16.40;8.03;;;;;;;32.53;23.89;100151.03;1671255;85;21071;-62
2022/06/10 10:02:02;;;;;;;12.05;8.00;;;;;;;32.33;24.33;100150.71;1680179;85;21028;-63
2022/06/10 10:04:59;;;;;;;12.37;7.47;;;;;;;32.36;24.08;100155.68;1690334;85;21118;-62
2022/06/10 10:07:48;;;;;;;17.17;7.67;;;;;;;32.36;24.04;100150.01;1645860;87;21034;-63
2022/06/10 10:10:29;;;;;;;19.00;7.75;;;;;;;32.36;23.96;100157.09;1659918;86;21153;-61
2022/06/10 10:13:31;;;;;;;16.48;8.18;;;;;;;32.28;23.89;100152.34;1661437;86;21072;-65
2022/06/10 10:16:29;;;;;;;13.85;7.30;;;;;;;32.16;24.20;100155.11;1668275;86;21508;-65
2022/06/10 10:19:29;;;;;;;10.48;6.55;;;;;;;32.07;23.92;100159.45;1581570;91;21101;-66
2022/06/10 10:22:17;;;;;;;10.28;6.58;;;;;;;31.99;23.95;100166.61;1580245;91;21094;-64
2022/06/10 10:24:50;;;;;;;12.63;7.08;;;;;;;31.87;23.65;100163.13;1610017;88;21087;-65
2022/06/10 10:27:34;;;;;;;14.58;8.58;;;;;;;31.65;24.02;100154.33;1610247;89;21094;-65
2022/06/10 10:30:08;;;;;;;10.93;7.65;;;;;;;31.49;24.61;100161.19;1610020;89;21091;-63
2022/06/10 10:32:38;;;;;;;13.18;7.60;;;;;;;31.42;24.83;100155.24;1609340;89;21066;-64
2022/06/10 10:35:20;;;;;;;13.32;8.08;;;;;;;31.44;25.53;100155.72;1609693;88;21285;-65
2022/06/10 10:38:00;;;;;;;15.23;8.43;;;;;;;31.54;25.26;100157.33;1679791;83;21074;-66
2022/06/10 10:40:42;;;;;;;13.15;7.50;;;;;;;31.63;24.94;100156.67;1699562;83;21114;-65
2022/06/10 10:43:24;;;;;;;13.05;7.37;;;;;;;31.72;24.61;100153.22;1699611;84;21058;-64
2022/06/10 10:46:06;;;;;;;13.83;7.60;;;;;;;31.79;24.47;100156.33;1699624;84;21546;-65
2022/06/10 10:48:40;;;;;;;14.85;7.28;;;;;;;31.81;24.38;100159.64;1699695;84;21007;-64
2022/06/10 10:51:17;;;;;;;16.20;8.03;;;;;;;31.76;24.46;100149.94;1699446;84;21105;-64
2022/06/10 10:53:54;;;;;;;15.35;7.58;;;;;;;31.77;24.58;100151.59;1606595;88;21561;-65
2022/06/10 10:56:33;;;;;;;14.45;8.15;;;;;;;31.78;24.54;100156.67;1609577;89;21134;-65
2022/06/10 10:59:03;;;;;;;12.50;7.42;;;;;;;31.75;24.55;100155.36;1609369;89;21059;-64
2022/06/10 11:01:44;;;;;;;14.33;7.20;;;;;;;31.68;24.35;100154.22;1609491;88;21106;-65
2022/06/10 11:04:34;;;;;;;11.28;7.05;;;;;;;31.58;24.31;100155.46;1583398;90;21506;-65
2022/06/10 11:07:15;;;;;;;9.80;7.08;;;;;;;31.31;24.40;100153.16;1613866;89;21513;-63
2022/06/10 11:09:52;;;;;;;9.43;6.55;;;;;;;30.99;24.55;100142.70;1619948;87;21499;-66
2022/06/10 11:12:29;;;;;;;10.25;7.42;;;;;;;30.74;24.75;100142.23;1643584;86;21122;-65
2022/06/10 11:15:06;;;;;;;10.98;7.28;;;;;;;30.61;25.21;100136.20;1577801;90;21157;-64
2022/06/10 11:17:35;;;;;;;16.73;10.40;;;;;;;30.61;25.19;100136.20;1579500;87;21160;-64
2022/06/10 11:20:31;;;;;;;14.28;8.03;;;;;;;30.63;25.13;100139.53;1646761;86;21046;-64
2022/06/10 11:23:24;;;;;;;12.93;7.53;;;;;;;30.62;25.22;100137.28;1646889;86;21018;-64
2022/06/10 11:26:13;;;;;;;10.95;6.78;;;;;;;30.61;25.14;100144.11;1658472;86;21046;-66
2022/06/10 11:28:43;;;;;;;10.50;6.60;;;;;;;30.55;23.92;100129.26;1646784;87;21046;-65
2022/06/10 11:31:22;;;;;;;13.18;7.55;;;;;;;30.61;24.19;100131.97;1658363;86;21074;-66
2022/06/10 11:33:53;;;;;;;13.15;7.33;;;;;;;30.60;23.93;100125.48;1677669;84;21027;-64
2022/06/10 11:36:29;;;;;;;10.15;8.10;;;;;;;30.57;24.31;100122.71;1702486;84;21540;-66
2022/06/10 11:39:25;;;;;;;11.25;7.75;;;;;;;30.62;24.77;100122.31;1702971;84;21426;-65
2022/06/10 11:42:15;;;;;;;12.65;7.75;;;;;;;30.67;24.81;100117.88;1702690;84;21042;-66
2022/06/10 11:44:56;;;;;;;19.35;8.15;;;;;;;30.71;24.85;100121.11;1703085;83;21027;-64
2022/06/10 11:47:41;;;;;;;14.85;8.20;;;;;;;30.73;24.33;100118.77;1702978;84;21086;-63
2022/06/10 11:50:16;;;;;;;13.20;8.08;;;;;;;30.71;24.21;100111.80;1702593;83;21034;-63
2022/06/10 11:53:15;;;;;;;11.85;7.50;;;;;;;30.69;24.27;100119.20;1702898;84;21058;-63
2022/06/10 11:55:44;;;;;;;13.25;8.63;;;;;;;30.68;24.19;100117.55;1703046;84;21039;-63
2022/06/10 12:01:17;;;;;;;23.25;9.53;;;;;;;30.73;24.18;100112.28;1703206;84;21126;-63
2022/06/10 12:03:50;;;;;;;13.83;7.83;;;;;;;30.70;24.32;100104.48;1720454;83;21058;-61
2022/06/10 12:06:24;;;;;;;12.73;8.13;;;;;;;30.66;24.17;100111.39;1711446;83;21071;-62
2022/06/10 12:09:15;;;;;;;15.78;9.23;;;;;;;30.63;23.88;100102.76;1639754;87;21091;-63
2022/06/10 12:11:51;;;;;;;17.23;9.50;;;;;;;30.58;24.01;100101.75;1671005;85;21043;-63
2022/06/10 12:14:27;;;;;;;16.40;9.28;;;;;;;30.52;24.46;100103.66;1665194;85;21078;-64
2022/06/10 12:17:06;;;;;;;14.90;9.75;;;;;;;30.56;24.65;100105.50;1665377;86;21477;-63
2022/06/10 12:19:43;;;;;;;13.65;9.60;;;;;;;30.63;24.34;100102.76;1665363;86;21113;-64
2022/06/10 12:22:12;;;;;;;;;;;;;;;30.66;24.51;100094.42;1667623;86;21039;-64